Time;durP1;ratioP1;P1;durP2;ratioP2;P2;SDS_P1;SDS_P2;PMS_P1;PMS_P2;Temp;Humidity;BMP_temperature;BMP_pressure;BME280_temperature;BME280_humidity;BME280_pressure;Samples;Min_cycle;Max_cycle;Signal;HPM_P1;HPM_P2
2023/05/15 00:02:22;;;;;;;10.53;9.50;;;10.60;1.00;;;;;;5093988;28;20682;-69
2023/05/15 00:04:48;;;;;;;9.77;8.77;;;10.60;1.00;;;;;;5075499;28;20659;-74
2023/05/15 00:07:13;;;;;;;11.20;10.20;;;10.60;1.00;;;;;;5093413;28;20184;-68
2023/05/15 00:09:39;;;;;;;11.50;10.33;;;10.50;1.00;;;;;;5092908;28;20173;-73
2023/05/15 00:12:05;;;;;;;11.23;10.13;;;10.50;1.00;;;;;;5092768;28;20161;-73
2023/05/15 00:14:31;;;;;;;10.53;9.63;;;10.50;1.00;;;;;;5079349;28;20662;-68
2023/05/15 00:16:56;;;;;;;12.70;10.97;;;10.50;1.00;;;;;;5074237;28;20388;-74
2023/05/15 00:19:22;;;;;;;11.10;10.07;;;10.50;1.00;;;;;;5087100;28;20188;-73
2023/05/15 00:21:48;;;;;;;11.13;10.07;;;10.50;1.00;;;;;;5090941;28;20294;-73
2023/05/15 00:24:13;;;;;;;10.13;9.13;;;10.50;1.00;;;;;;5082726;28;20210;-73
2023/05/15 00:26:39;;;;;;;11.30;10.20;;;10.50;1.00;;;;;;5075983;28;20170;-68
2023/05/15 00:29:05;;;;;;;12.10;10.93;;;10.40;1.00;;;;;;5089688;28;20186;-73
2023/05/15 00:31:32;;;;;;;14.57;11.17;;;10.40;1.00;;;;;;5087360;28;20174;-72
2023/05/15 00:33:58;;;;;;;11.97;10.77;;;10.40;1.00;;;;;;5073475;28;20220;-72
2023/05/15 00:36:24;;;;;;;11.10;10.30;;;10.40;1.00;;;;;;5076618;28;20421;-69
2023/05/15 00:38:50;;;;;;;12.47;11.10;;;10.40;1.00;;;;;;5094116;28;20531;-72
2023/05/15 00:41:17;;;;;;;11.73;10.60;;;10.40;1.00;;;;;;5073208;28;20826;-68
2023/05/15 00:43:45;;;;;;;11.30;10.20;;;10.40;1.00;;;;;;5073618;28;20825;-68
2023/05/15 00:46:13;;;;;;;15.10;10.40;;;10.40;1.00;;;;;;5090672;28;20425;-69
2023/05/15 00:48:40;;;;;;;11.07;9.90;;;10.40;1.00;;;;;;5092748;28;20761;-73
2023/05/15 00:51:06;;;;;;;12.57;11.40;;;10.30;1.00;;;;;;5075141;28;20416;-68
2023/05/15 00:53:31;;;;;;;11.83;10.73;;;10.30;1.00;;;;;;5073480;28;20488;-69
2023/05/15 00:55:58;;;;;;;13.00;11.80;;;10.20;1.00;;;;;;5088425;28;20182;-68
2023/05/15 00:58:26;;;;;;;12.07;10.87;;;10.10;1.00;;;;;;5093639;28;20172;-74
2023/05/15 01:00:52;;;;;;;15.43;11.50;;;10.10;1.00;;;;;;5090952;28;20490;-72
2023/05/15 01:03:18;;;;;;;11.37;10.27;;;10.10;1.00;;;;;;5092662;28;20920;-73
2023/05/15 01:05:44;;;;;;;12.90;11.67;;;10.10;1.00;;;;;;5076909;28;20423;-73
2023/05/15 01:08:22;;;;;;;12.87;11.67;;;10.20;1.00;;;;;;5072704;28;20174;-69
2023/05/15 01:10:49;;;;;;;16.23;13.30;;;10.20;1.00;;;;;;5086684;28;20400;-68
2023/05/15 01:13:15;;;;;;;18.70;13.97;;;10.30;1.00;;;;;;5093475;28;20390;-69
2023/05/15 01:15:41;;;;;;;14.97;13.47;;;10.30;1.00;;;;;;5077744;28;20447;-75
2023/05/15 01:18:07;;;;;;;17.77;14.07;;;10.30;1.00;;;;;;5071852;28;20395;-69
2023/05/15 01:20:48;;;;;;;17.33;14.43;;;10.30;1.00;;;;;;5084063;28;20463;-69
2023/05/15 01:23:47;;;;;;;16.70;14.63;;;10.30;1.00;;;;;;5091703;28;20626;-69
2023/05/15 01:26:25;;;;;;;17.20;14.77;;;10.40;1.00;;;;;;5040330;28;20927;-74
2023/05/15 01:28:58;;;;;;;22.00;15.93;;;10.40;1.00;;;;;;5071993;28;20434;-69
2023/05/15 01:31:29;;;;;;;19.53;17.30;;;10.40;1.00;;;;;;5092314;28;20439;-72
2023/05/15 01:34:01;;;;;;;18.83;16.83;;;10.40;1.00;;;;;;5092400;28;20759;-73
2023/05/15 01:36:37;;;;;;;20.23;18.13;;;10.40;1.00;;;;;;5072963;28;20471;-69
2023/05/15 01:39:04;;;;;;;22.37;17.47;;;10.30;1.00;;;;;;5079826;28;20898;-68
2023/05/15 01:41:48;;;;;;;22.47;19.00;;;10.40;1.00;;;;;;5071104;28;20379;-69
2023/05/15 01:44:21;;;;;;;22.10;19.40;;;10.40;8.10;;;;;;5090407;28;20445;-73
2023/05/15 01:46:50;;;;;;;23.37;19.97;;;10.40;17.40;;;;;;5092966;28;20915;-69
2023/05/15 01:49:21;;;;;;;26.63;22.00;;;10.40;6.10;;;;;;5075420;28;20395;-72
2023/05/15 01:51:51;;;;;;;27.70;22.37;;;10.40;21.30;;;;;;5070978;28;20885;-72
2023/05/15 01:54:17;;;;;;;26.60;21.97;;;10.40;35.80;;;;;;5087312;28;20479;-72
2023/05/15 01:56:44;;;;;;;27.67;21.47;;;10.50;59.10;;;;;;5092462;28;20464;-70
2023/05/15 01:59:12;;;;;;;30.17;23.03;;;10.60;72.60;;;;;;5091468;28;20485;-70
2023/05/15 02:01:40;;;;;;;30.03;22.73;;;10.60;87.20;;;;;;5096051;28;20370;-68
2023/05/15 02:04:06;;;;;;;35.33;24.37;;;10.60;92.20;;;;;;5081581;28;20849;-74
2023/05/15 02:06:32;;;;;;;31.77;23.03;;;10.60;92.30;;;;;;5076812;28;20439;-73
2023/05/15 02:09:02;;;;;;;39.50;24.30;;;10.60;92.20;;;;;;5088531;28;20415;-72
2023/05/15 02:11:27;;;;;;;28.73;22.60;;;10.60;92.30;;;;;;5095968;28;20449;-71
2023/05/15 02:13:56;;;;;;;30.33;24.17;;;10.60;92.30;;;;;;5085317;28;20411;-73
2023/05/15 02:16:22;;;;;;;31.90;24.87;;;10.60;92.20;;;;;;5076542;28;20257;-72
2023/05/15 02:18:48;;;;;;;41.47;25.00;;;10.60;92.20;;;;;;5084619;28;20965;-73
2023/05/15 02:21:14;;;;;;;31.70;24.73;;;10.60;92.20;;;;;;5094872;28;20416;-74
2023/05/15 02:23:40;;;;;;;28.70;23.67;;;10.60;99.90;;;;;;5087368;28;20961;-69
2023/05/15 02:26:20;;;;;;;30.70;23.87;;;10.60;99.90;;;;;;5084856;28;20450;-71
2023/05/15 02:29:16;;;;;;;36.30;24.40;;;10.50;99.90;;;;;;5084527;28;20165;-73
2023/05/15 02:32:35;;;;;;;30.93;23.23;;;10.50;99.90;;;;;;5075402;28;20416;-73
2023/05/15 02:35:06;;;;;;;30.80;22.10;;;10.60;99.90;;;;;;5014428;28;20467;-69
2023/05/15 02:37:36;;;;;;;29.07;22.90;;;10.50;99.40;;;;;;5013345;28;20768;-73
2023/05/15 02:40:06;;;;;;;28.07;22.87;;;10.50;99.90;;;;;;5060644;28;20489;-72
2023/05/15 02:42:32;;;;;;;30.23;24.57;;;10.50;99.50;;;;;;5092735;28;20501;-72
2023/05/15 02:45:00;;;;;;;30.73;23.30;;;10.50;99.90;;;;;;5074636;28;20500;-69
2023/05/15 02:47:27;;;;;;;29.90;23.43;;;10.50;99.90;;;;;;5077371;28;20810;-70
2023/05/15 02:49:53;;;;;;;25.83;21.37;;;10.40;99.90;;;;;;5095853;28;20382;-69
2023/05/15 02:52:18;;;;;;;27.43;22.20;;;10.50;99.90;;;;;;5095057;28;20928;-69
2023/05/15 02:54:44;;;;;;;29.43;22.40;;;10.40;99.90;;;;;;5088737;28;20413;-73
2023/05/15 02:57:10;;;;;;;34.53;25.67;;;10.40;99.90;;;;;;5095728;28;20177;-69
2023/05/15 02:59:36;;;;;;;30.07;22.47;;;10.40;99.90;;;;;;5077066;28;20516;-68
2023/05/15 03:02:02;;;;;;;24.87;22.27;;;10.40;99.90;;;;;;5074703;28;20182;-73
2023/05/15 03:04:28;;;;;;;25.70;19.97;;;10.30;98.30;;;;;;5092174;28;20451;-68
2023/05/15 03:06:54;;;;;;;31.23;21.63;;;10.30;96.70;;;;;;5095867;28;20735;-69
2023/05/15 03:09:19;;;;;;;39.80;23.40;;;10.20;99.90;;;;;;5082483;28;20441;-70
2023/05/15 03:11:45;;;;;;;30.80;22.43;;;10.30;99.50;;;;;;5092686;28;20541;-72
2023/05/15 03:14:11;;;;;;;31.00;23.90;;;10.30;99.90;;;;;;5095347;28;20197;-68
2023/05/15 03:16:37;;;;;;;29.00;22.43;;;10.20;99.90;;;;;;5095019;28;20177;-72
2023/05/15 03:19:03;;;;;;;26.40;21.47;;;10.20;99.90;;;;;;5095598;28;20526;-69
2023/05/15 03:21:33;;;;;;;29.13;22.00;;;10.20;99.90;;;;;;5082564;28;20781;-69
2023/05/15 03:23:59;;;;;;;28.30;23.40;;;10.20;99.90;;;;;;5075225;28;20439;-68
2023/05/15 03:26:25;;;;;;;28.87;21.83;;;10.20;99.90;;;;;;5082399;28;20499;-72
2023/05/15 03:28:52;;;;;;;32.73;23.90;;;10.20;99.90;;;;;;5095127;28;20385;-70
2023/05/15 03:31:17;;;;;;;31.43;23.03;;;10.20;99.90;;;;;;5086746;28;20556;-73
2023/05/15 03:33:44;;;;;;;30.60;22.00;;;10.10;99.90;;;;;;5074901;28;20438;-68
2023/05/15 03:36:10;;;;;;;36.53;22.03;;;10.20;99.90;;;;;;5079288;28;20261;-72
2023/05/15 03:38:36;;;;;;;29.60;23.03;;;10.10;99.90;;;;;;5095320;28;20468;-68
2023/05/15 03:41:02;;;;;;;29.83;22.17;;;10.10;99.90;;;;;;5092626;28;20883;-69
2023/05/15 03:43:28;;;;;;;34.33;24.40;;;10.10;99.90;;;;;;5095004;28;20495;-72
2023/05/15 03:45:54;;;;;;;31.83;22.80;;;10.10;99.90;;;;;;5087720;28;20685;-68
2023/05/15 03:48:23;;;;;;;33.13;23.97;;;10.10;99.90;;;;;;5074800;28;20190;-72
2023/05/15 03:50:49;;;;;;;33.27;23.53;;;10.10;99.90;;;;;;5080879;28;20411;-72
2023/05/15 03:53:15;;;;;;;27.57;22.57;;;10.10;99.90;;;;;;5074734;28;20406;-68
2023/05/15 03:55:41;;;;;;;27.90;23.10;;;10.10;99.90;;;;;;5075688;28;20387;-72
2023/05/15 03:58:07;;;;;;;29.60;23.17;;;10.00;99.90;;;;;;5094794;28;20169;-72
2023/05/15 04:00:32;;;;;;;31.40;24.83;;;10.00;99.90;;;;;;5088865;28;20213;-74
2023/05/15 04:02:58;;;;;;;30.37;23.53;;;10.00;99.90;;;;;;5074373;28;20194;-72
2023/05/15 04:05:23;;;;;;;32.10;23.10;;;10.00;99.90;;;;;;5083660;28;20206;-70
2023/05/15 04:07:49;;;;;;;36.83;24.30;;;10.00;99.90;;;;;;5082053;28;20177;-69
2023/05/15 04:10:15;;;;;;;31.00;22.90;;;10.00;99.90;;;;;;5091626;28;20286;-69
2023/05/15 04:12:40;;;;;;;32.47;24.53;;;10.00;99.90;;;;;;5074327;28;20194;-71
2023/05/15 04:15:17;;;;;;;32.70;24.03;;;10.00;99.90;;;;;;5073564;28;20698;-72
2023/05/15 04:17:45;;;;;;;32.60;24.30;;;10.00;99.90;;;;;;5073684;28;20282;-73
2023/05/15 04:20:14;;;;;;;30.37;22.10;;;10.00;99.90;;;;;;5073456;28;20398;-73
2023/05/15 04:22:40;;;;;;;32.10;23.90;;;10.00;99.90;;;;;;5074015;28;20422;-69
2023/05/15 04:25:06;;;;;;;29.97;24.50;;;10.00;99.90;;;;;;5092164;28;20491;-68
2023/05/15 04:27:32;;;;;;;30.50;22.10;;;10.10;99.90;;;;;;5093430;28;20404;-70
2023/05/15 04:29:58;;;;;;;30.40;23.80;;;10.10;99.90;;;;;;5077184;28;20416;-69
2023/05/15 04:32:24;;;;;;;31.43;24.53;;;10.20;99.90;;;;;;5077148;28;20467;-68
2023/05/15 04:34:50;;;;;;;31.00;22.33;;;10.20;99.90;;;;;;5079006;28;20435;-69
2023/05/15 04:37:15;;;;;;;31.10;24.23;;;10.20;99.90;;;;;;5072861;28;20182;-69
2023/05/15 04:39:41;;;;;;;26.47;22.60;;;10.30;99.90;;;;;;5086451;28;20238;-69
2023/05/15 04:42:09;;;;;;;32.97;23.80;;;10.30;99.90;;;;;;5092977;28;20162;-69
2023/05/15 04:44:34;;;;;;;31.67;23.57;;;10.40;99.90;;;;;;5082410;28;20190;-70
2023/05/15 04:47:00;;;;;;;26.70;22.00;;;10.40;99.90;;;;;;5086212;28;20410;-70
2023/05/15 04:49:26;;;;;;;28.33;23.40;;;10.50;99.90;;;;;;5084171;28;20562;-70
2023/05/15 04:51:51;;;;;;;33.73;23.20;;;10.50;99.90;;;;;;5072848;28;20177;-72
2023/05/15 04:54:17;;;;;;;29.83;23.47;;;10.60;99.90;;;;;;5081009;28;20202;-71
2023/05/15 04:56:44;;;;;;;28.20;22.40;;;10.60;99.90;;;;;;5073508;28;20669;-69
2023/05/15 04:59:12;;;;;;;27.93;23.37;;;10.70;99.90;;;;;;5084908;28;20249;-71
2023/05/15 05:01:38;;;;;;;31.80;22.17;;;10.70;99.90;;;;;;5071475;28;20394;-67
2023/05/15 05:04:06;;;;;;;34.20;25.07;;;10.80;99.90;;;;;;5076625;28;20403;-67
2023/05/15 05:06:31;;;;;;;33.13;25.00;;;10.80;99.90;;;;;;5075066;28;20449;-65
2023/05/15 05:08:57;;;;;;;37.23;25.40;;;10.90;99.90;;;;;;5091314;28;20490;-68
2023/05/15 05:11:23;;;;;;;32.30;25.80;;;11.00;99.90;;;;;;5090497;28;20249;-67
2023/05/15 05:13:49;;;;;;;29.90;22.63;;;11.00;99.90;;;;;;5073232;28;20230;-69
2023/05/15 05:16:15;;;;;;;36.60;24.93;;;11.10;99.90;;;;;;5073106;28;20162;-67
2023/05/15 05:18:41;;;;;;;46.87;35.10;;;11.20;99.90;;;;;;5083633;28;21004;-67
2023/05/15 05:21:06;;;;;;;54.83;38.30;;;11.30;99.90;;;;;;5091235;28;20569;-69
2023/05/15 05:23:32;;;;;;;36.00;29.70;;;11.40;99.90;;;;;;5078040;28;20217;-67
2023/05/15 05:25:58;;;;;;;27.37;23.50;;;11.50;99.90;;;;;;5071074;28;20202;-66
2023/05/15 05:28:24;;;;;;;29.50;22.00;;;11.60;99.90;;;;;;5085780;28;20179;-69
2023/05/15 05:30:50;;;;;;;25.70;21.43;;;11.60;99.90;;;;;;5092446;28;20461;-67
2023/05/15 05:33:16;;;;;;;34.00;24.20;;;11.70;99.90;;;;;;5089042;28;20256;-69
2023/05/15 05:35:42;;;;;;;33.57;25.30;;;11.80;99.90;;;;;;5085009;28;20411;-68
2023/05/15 05:38:07;;;;;;;33.73;26.50;;;11.90;99.90;;;;;;5081934;28;20181;-69
2023/05/15 05:40:33;;;;;;;34.60;23.17;;;11.90;99.90;;;;;;5086739;28;20593;-68
2023/05/15 05:43:03;;;;;;;25.67;20.03;;;12.10;99.90;;;;;;5072819;28;20272;-71
2023/05/15 05:45:29;;;;;;;45.67;31.30;;;12.20;99.90;;;;;;5072052;28;20197;-73
2023/05/15 05:47:57;;;;;;;70.73;48.20;;;12.30;99.90;;;;;;5072925;28;20720;-71
2023/05/15 05:50:23;;;;;;;65.90;42.23;;;12.40;99.90;;;;;;5076714;28;20427;-69
2023/05/15 05:52:49;;;;;;;29.67;23.03;;;12.50;99.90;;;;;;5091867;28;20520;-70
2023/05/15 05:55:15;;;;;;;32.93;24.00;;;12.70;99.90;;;;;;5093078;28;20399;-65
2023/05/15 05:57:41;;;;;;;24.83;18.33;;;12.80;99.90;;;;;;5092997;28;20418;-65
2023/05/15 06:00:10;;;;;;;18.10;15.07;;;13.00;99.90;;;;;;5092153;28;20296;-70
2023/05/15 06:02:37;;;;;;;17.63;14.67;;;13.10;99.90;;;;;;5091930;28;20194;-70
2023/05/15 06:05:03;;;;;;;20.70;14.80;;;13.20;99.90;;;;;;5090312;28;20529;-66
2023/05/15 06:07:29;;;;;;;16.90;14.67;;;13.30;99.90;;;;;;5083762;28;20412;-68
2023/05/15 06:09:55;;;;;;;16.23;13.97;;;13.40;99.90;;;;;;5072467;28;20819;-70
2023/05/15 06:12:21;;;;;;;14.80;13.30;;;13.50;99.90;;;;;;5071825;28;20186;-66
2023/05/15 06:14:46;;;;;;;19.70;13.47;;;13.60;99.90;;;;;;5072525;28;20392;-71
2023/05/15 06:17:12;;;;;;;15.23;13.30;;;13.70;99.90;;;;;;5071627;28;20178;-71
2023/05/15 06:19:38;;;;;;;20.70;13.13;;;13.70;99.90;;;;;;5071125;28;20198;-71
2023/05/15 06:22:04;;;;;;;14.07;12.53;;;13.70;99.90;;;;;;5071510;28;20265;-71
2023/05/15 06:24:30;;;;;;;14.33;12.90;;;13.80;99.90;;;;;;5072518;28;20190;-70
2023/05/15 06:26:55;;;;;;;15.70;12.50;;;13.80;99.90;;;;;;5070098;28;20413;-66
2023/05/15 06:29:21;;;;;;;17.57;13.07;;;13.90;99.90;;;;;;5071616;28;20269;-68
2023/05/15 06:31:47;;;;;;;14.23;12.83;;;13.90;99.90;;;;;;5073115;28;20173;-70
2023/05/15 06:34:13;;;;;;;13.83;11.90;;;14.00;99.90;;;;;;5092526;28;20190;-70
2023/05/15 06:36:39;;;;;;;17.67;13.30;;;14.00;99.90;;;;;;5080406;28;20178;-71
2023/05/15 06:39:04;;;;;;;14.23;12.73;;;14.10;99.90;;;;;;5072421;28;20158;-66
2023/05/15 06:41:31;;;;;;;17.47;14.40;;;14.10;99.90;;;;;;5071590;28;20407;-66
2023/05/15 06:43:58;;;;;;;18.37;14.83;;;14.20;99.90;;;;;;5073317;28;20190;-66
2023/05/15 06:46:24;;;;;;;17.70;14.33;;;14.30;99.90;;;;;;5075049;28;20447;-68
2023/05/15 06:48:50;;;;;;;21.93;14.43;;;14.40;99.90;;;;;;5075982;28;20903;-69
2023/05/15 06:51:16;;;;;;;14.63;13.00;;;14.50;99.90;;;;;;5089024;28;20500;-69
2023/05/15 06:53:41;;;;;;;14.97;12.00;;;14.60;99.90;;;;;;5094756;28;20196;-69
2023/05/15 06:56:07;;;;;;;15.00;12.77;;;14.70;99.90;;;;;;5096066;28;20749;-68
2023/05/15 06:58:36;;;;;;;17.27;12.80;;;14.70;99.90;;;;;;5096232;28;20244;-68
2023/05/15 07:01:02;;;;;;;14.57;12.13;;;14.80;99.90;;;;;;5094916;28;20404;-67
2023/05/15 07:03:29;;;;;;;12.37;11.17;;;14.80;99.90;;;;;;5093893;28;20932;-66
2023/05/15 07:05:55;;;;;;;13.53;12.13;;;14.90;99.90;;;;;;5094623;28;20516;-69
2023/05/15 07:08:20;;;;;;;12.27;10.77;;;15.00;94.70;;;;;;5094810;28;20912;-69
2023/05/15 07:10:48;;;;;;;12.37;11.20;;;15.00;93.90;;;;;;5094850;28;20165;-68
2023/05/15 07:13:15;;;;;;;12.07;10.20;;;15.10;93.80;;;;;;5095640;28;20184;-70
2023/05/15 07:15:41;;;;;;;13.37;11.27;;;15.20;91.20;;;;;;5095652;28;20919;-66
2023/05/15 07:18:07;;;;;;;12.50;11.10;;;15.30;82.00;;;;;;5080519;28;20424;-68
2023/05/15 07:20:32;;;;;;;15.63;10.70;;;15.50;45.90;;;;;;5074318;28;20166;-65
2023/05/15 07:22:58;;;;;;;12.90;10.43;;;15.50;29.30;;;;;;5073523;28;20689;-67
2023/05/15 07:25:24;;;;;;;11.90;10.80;;;15.60;38.70;;;;;;5075111;28;20186;-66
2023/05/15 07:27:50;;;;;;;11.77;9.63;;;15.70;40.50;;;;;;5075189;28;20170;-69
2023/05/15 07:30:16;;;;;;;11.03;9.90;;;15.80;44.10;;;;;;5078760;28;20776;-70
2023/05/15 07:32:42;;;;;;;10.63;9.40;;;15.90;29.80;;;;;;5082522;28;20420;-70
2023/05/15 07:35:10;;;;;;;12.60;8.93;;;16.00;4.10;;;;;;5075107;28;20505;-66
2023/05/15 07:37:36;;;;;;;15.10;9.47;;;16.20;1.00;;;;;;5094232;28;20181;-69
2023/05/15 07:40:03;;;;;;;10.83;7.50;;;16.30;1.00;;;;;;5094236;28;20398;-68
2023/05/15 07:42:28;;;;;;;9.87;8.93;;;16.40;1.00;;;;;;5073917;28;20448;-69
2023/05/15 07:44:54;;;;;;;11.57;8.10;;;16.50;1.00;;;;;;5074849;28;21011;-67
2023/05/15 07:47:20;;;;;;;7.97;7.37;;;16.50;1.00;;;;;;5074774;28;20189;-69
2023/05/15 07:49:46;;;;;;;7.70;6.93;;;16.50;1.00;;;;;;5074726;28;20171;-70
2023/05/15 07:52:11;;;;;;;7.57;7.07;;;16.60;1.00;;;;;;5072620;28;20404;-67
2023/05/15 07:54:40;;;;;;;8.37;7.67;;;16.80;1.00;;;;;;5074357;28;20174;-66
2023/05/15 07:57:06;;;;;;;8.03;7.33;;;16.90;1.00;;;;;;5072354;28;20587;-70
2023/05/15 07:59:32;;;;;;;9.97;6.83;;;17.00;1.00;;;;;;5074303;28;20401;-67
2023/05/15 08:01:58;;;;;;;8.70;7.17;;;17.10;1.00;;;;;;5073529;28;20498;-68
2023/05/15 08:04:24;;;;;;;7.23;6.57;;;17.20;1.00;;;;;;5074507;28;20166;-70
2023/05/15 08:06:50;;;;;;;7.67;6.40;;;17.40;1.00;;;;;;5074528;28;20154;-66
2023/05/15 08:09:15;;;;;;;9.23;5.90;;;17.60;1.00;;;;;;5072454;28;20623;-71
2023/05/15 08:11:44;;;;;;;13.33;6.30;;;17.80;1.00;;;;;;5092088;28;20780;-71
2023/05/15 08:14:11;;;;;;;6.40;5.80;;;17.90;1.00;;;;;;5094408;28;20257;-68
2023/05/15 08:16:37;;;;;;;6.63;5.67;;;18.10;1.00;;;;;;5073603;28;20417;-69
2023/05/15 08:19:05;;;;;;;6.10;5.60;;;18.20;1.00;;;;;;5074226;28;20401;-69
2023/05/15 08:21:31;;;;;;;6.07;5.50;;;18.20;1.00;;;;;;5073415;28;20170;-68
2023/05/15 08:23:58;;;;;;;7.57;5.50;;;18.20;1.00;;;;;;5073838;28;20451;-69
2023/05/15 08:26:30;;;;;;;9.87;5.17;;;18.30;1.00;;;;;;5073897;28;20221;-72
2023/05/15 08:28:56;;;;;;;4.80;4.50;;;18.30;1.00;;;;;;5076954;28;20424;-70
2023/05/15 08:31:22;;;;;;;4.93;4.53;;;18.50;1.00;;;;;;5079338;28;20519;-66
2023/05/15 08:33:47;;;;;;;11.80;5.73;;;18.60;1.00;;;;;;5073962;28;20522;-68
2023/05/15 08:36:13;;;;;;;4.90;4.50;;;18.70;1.00;;;;;;5074467;28;20174;-71
2023/05/15 08:38:39;;;;;;;5.27;4.53;;;18.80;1.00;;;;;;5092229;28;20248;-68
2023/05/15 08:41:17;;;;;;;7.33;5.00;;;19.00;1.00;;;;;;5092067;28;20169;-69
2023/05/15 08:43:44;;;;;;;5.37;4.50;;;19.10;1.00;;;;;;5093972;28;20276;-67
2023/05/15 08:46:10;;;;;;;5.53;5.10;;;19.30;1.00;;;;;;5093927;28;20454;-69
2023/05/15 08:48:40;;;;;;;5.47;4.90;;;19.40;1.00;;;;;;5093898;28;20404;-69
2023/05/15 08:51:09;;;;;;;6.07;4.53;;;19.60;1.00;;;;;;5091449;28;20170;-68
2023/05/15 08:53:35;;;;;;;7.27;5.00;;;19.80;1.00;;;;;;5076485;28;20448;-70
2023/05/15 08:56:02;;;;;;;5.73;5.23;;;20.10;1.00;;;;;;5073524;28;20397;-67
2023/05/15 08:58:28;;;;;;;6.37;4.83;;;20.10;99.90;;;;;;5087618;28;20423;-66
2023/05/15 09:00:54;;;;;;;5.90;5.40;;;20.20;99.90;;;;;;5092846;28;20810;-67
2023/05/15 09:03:22;;;;;;;5.00;4.57;;;20.30;99.90;;;;;;5080636;28;20432;-68
2023/05/15 09:05:51;;;;;;;5.57;5.17;;;20.60;99.90;;;;;;5073129;28;20440;-69
2023/05/15 09:08:18;;;;;;;6.60;5.23;;;20.70;99.90;;;;;;5072203;28;20743;-70
2023/05/15 09:10:44;;;;;;;7.17;4.70;;;20.70;99.90;;;;;;5072851;28;20397;-68
2023/05/15 09:13:11;;;;;;;6.53;5.13;;;20.50;99.90;;;;;;5072947;28;20432;-68
2023/05/15 09:15:37;;;;;;;5.67;5.17;;;20.40;99.90;;;;;;5073258;28;20803;-69
2023/05/15 09:18:03;;;;;;;5.90;5.50;;;20.30;99.90;;;;;;5073225;28;20435;-68
2023/05/15 09:20:33;;;;;;;6.83;5.57;;;20.40;99.90;;;;;;5072499;28;20400;-68
2023/05/15 09:23:01;;;;;;;6.37;4.33;;;20.20;99.90;;;;;;5073005;28;20489;-69
2023/05/15 09:25:39;;;;;;;6.53;5.37;;;20.40;99.90;;;;;;5072587;28;20513;-70
2023/05/15 09:28:10;;;;;;;7.17;6.47;;;20.70;99.90;;;;;;5073150;28;20436;-70
2023/05/15 09:30:41;;;;;;;5.33;4.67;;;21.00;99.90;;;;;;5072428;28;20908;-69
2023/05/15 09:33:08;;;;;;;5.27;4.77;;;21.20;99.90;;;;;;5071747;28;20428;-70
2023/05/15 09:35:36;;;;;;;9.77;4.90;;;21.40;99.90;;;;;;5072911;28;20450;-69
2023/05/15 09:38:07;;;;;;;4.70;4.30;;;21.40;99.90;;;;;;5071816;28;20416;-68
2023/05/15 09:40:33;;;;;;;8.77;4.90;;;21.30;99.90;;;;;;5072206;28;20400;-71
2023/05/15 09:42:59;;;;;;;5.20;4.80;;;21.30;99.90;;;;;;5072804;28;20503;-71
2023/05/15 09:45:28;;;;;;;7.90;5.50;;;21.20;99.90;;;;;;5072374;28;20532;-68
2023/05/15 09:48:03;;;;;;;5.40;4.90;;;21.30;99.90;;;;;;5072907;28;20400;-68
2023/05/15 09:50:37;;;;;;;7.63;5.00;;;21.20;99.90;;;;;;5072123;28;20764;-71
2023/05/15 09:53:03;;;;;;;6.53;5.63;;;21.10;99.90;;;;;;5072813;28;20417;-69
2023/05/15 09:55:33;;;;;;;7.57;5.53;;;21.70;99.90;;;;;;5072896;28;20841;-70
2023/05/15 09:58:07;;;;;;;5.37;4.87;;;22.10;99.90;;;;;;5072871;28;20416;-69
2023/05/15 10:00:34;;;;;;;5.27;4.77;;;22.50;99.90;;;;;;5072010;28;20435;-71
2023/05/15 10:03:03;;;;;;;4.80;4.50;;;22.60;99.90;;;;;;5071239;28;20522;-70
2023/05/15 10:05:32;;;;;;;5.40;4.70;;;22.50;99.90;;;;;;5072634;28;20505;-69
2023/05/15 10:07:58;;;;;;;6.67;5.30;;;22.60;99.90;;;;;;5072752;28;20893;-69
2023/05/15 10:10:26;;;;;;;5.50;4.93;;;22.90;99.90;;;;;;5070682;28;20409;-71
2023/05/15 10:12:54;;;;;;;4.67;4.27;;;23.30;99.90;;;;;;5072456;28;20929;-71
2023/05/15 10:15:21;;;;;;;5.30;4.80;;;23.60;99.90;;;;;;5072671;28;20419;-69
2023/05/15 10:17:48;;;;;;;4.00;3.70;;;23.80;99.90;;;;;;5073159;28;20416;-69
2023/05/15 10:20:19;;;;;;;4.57;4.13;;;23.70;99.90;;;;;;5075954;28;20816;-72
2023/05/15 10:22:47;;;;;;;5.03;4.47;;;23.50;99.90;;;;;;5076020;28;20432;-71
2023/05/15 10:25:33;;;;;;;5.00;4.50;;;23.00;99.90;;;;;;5075945;28;20527;-72
2023/05/15 10:28:00;;;;;;;4.33;3.93;;;22.60;99.90;;;;;;5076387;28;20404;-69
2023/05/15 10:30:27;;;;;;;4.97;4.57;;;22.10;99.90;;;;;;5075620;28;20404;-71
2023/05/15 10:32:54;;;;;;;5.33;4.83;;;22.00;99.90;;;;;;5076037;28;20426;-71
2023/05/15 10:35:21;;;;;;;7.80;4.27;;;22.00;99.90;;;;;;5076228;28;20885;-69
2023/05/15 10:37:48;;;;;;;7.90;5.90;;;22.00;99.90;;;;;;5074865;28;20413;-69
2023/05/15 10:40:15;;;;;;;5.73;4.07;;;22.30;99.90;;;;;;5075442;28;20419;-71
2023/05/15 10:42:43;;;;;;;7.30;5.07;;;22.50;99.90;;;;;;5075467;28;20527;-71
2023/05/15 10:45:10;;;;;;;5.70;4.50;;;22.60;99.90;;;;;;5074420;28;20462;-71
2023/05/15 10:47:38;;;;;;;4.73;4.20;;;22.70;99.90;;;;;;5076014;28;20428;-70
2023/05/15 10:50:05;;;;;;;5.77;3.73;;;22.90;99.90;;;;;;5074238;28;20777;-75
2023/05/15 10:52:32;;;;;;;4.33;3.90;;;22.50;99.90;;;;;;5075711;28;20451;-70
2023/05/15 10:54:58;;;;;;;4.70;4.27;;;22.40;99.90;;;;;;5075742;28;20404;-70
2023/05/15 10:57:24;;;;;;;4.03;3.70;;;22.10;99.90;;;;;;5075621;28;20479;-70
2023/05/15 10:59:50;;;;;;;4.93;4.53;;;22.00;99.90;;;;;;5075147;28;20424;-72
2023/05/15 11:02:23;;;;;;;4.77;4.23;;;22.00;99.90;;;;;;5074834;28;20451;-71
2023/05/15 11:04:59;;;;;;;4.27;3.97;;;22.00;99.90;;;;;;5075664;28;20653;-72
2023/05/15 11:07:25;;;;;;;5.10;4.70;;;21.90;99.90;;;;;;5075638;28;20405;-72
2023/05/15 11:09:55;;;;;;;5.67;3.97;;;21.70;99.90;;;;;;5075338;28;20404;-70
2023/05/15 11:12:22;;;;;;;4.47;4.03;;;21.40;99.90;;;;;;5074839;28;20417;-71
2023/05/15 11:14:50;;;;;;;4.67;4.37;;;21.40;99.90;;;;;;5075628;28;20396;-68
2023/05/15 11:17:17;;;;;;;6.70;4.80;;;21.20;99.90;;;;;;5074757;28;20432;-70
2023/05/15 11:19:48;;;;;;;4.63;4.23;;;20.90;99.90;;;;;;5075338;28;20412;-71
2023/05/15 11:22:16;;;;;;;5.07;4.60;;;20.70;99.90;;;;;;5073521;28;20412;-69
2023/05/15 11:24:50;;;;;;;4.30;3.93;;;20.60;99.90;;;;;;5075233;28;20438;-71
2023/05/15 11:27:22;;;;;;;4.50;4.20;;;20.60;99.90;;;;;;5075245;28;20403;-69
2023/05/15 11:30:07;;;;;;;4.97;4.37;;;20.60;99.90;;;;;;5073185;28;20412;-72
2023/05/15 11:32:45;;;;;;;5.10;4.07;;;20.50;99.90;;;;;;5075060;28;20420;-69
2023/05/15 11:35:12;;;;;;;5.43;4.83;;;20.50;99.90;;;;;;5078045;28;20518;-66
2023/05/15 11:37:42;;;;;;;5.17;4.77;;;20.30;99.90;;;;;;5093909;28;20438;-64
2023/05/15 11:40:13;;;;;;;5.43;5.03;;;20.00;99.90;;;;;;5089269;28;20431;-66
2023/05/15 11:42:39;;;;;;;6.60;5.20;;;19.80;99.90;;;;;;5095216;28;20466;-65
2023/05/15 11:45:08;;;;;;;8.30;5.07;;;19.70;99.90;;;;;;5089778;28;20451;-67
2023/05/15 11:47:34;;;;;;;4.70;4.30;;;19.50;99.90;;;;;;5075399;28;20448;-70
2023/05/15 11:50:00;;;;;;;7.80;5.13;;;19.40;99.90;;;;;;5085180;28;20773;-71
2023/05/15 11:52:28;;;;;;;6.47;5.87;;;19.20;99.90;;;;;;5077070;28;20198;-71
2023/05/15 11:54:54;;;;;;;6.70;5.30;;;19.20;99.90;;;;;;5072480;28;20440;-70
2023/05/15 11:57:20;;;;;;;7.97;5.27;;;19.20;99.90;;;;;;5073791;28;20455;-69
2023/05/15 11:59:46;;;;;;;5.47;4.97;;;19.10;99.90;;;;;;5080926;28;20442;-70
2023/05/15 12:02:12;;;;;;;6.30;5.70;;;19.10;99.90;;;;;;5072721;28;20896;-70
2023/05/15 12:04:37;;;;;;;7.07;5.20;;;19.30;99.90;;;;;;5086532;28;20642;-68
2023/05/15 12:07:03;;;;;;;5.40;5.00;;;19.40;99.90;;;;;;5094749;28;20544;-69
2023/05/15 12:09:40;;;;;;;4.57;4.10;;;19.40;99.90;;;;;;5075474;28;20170;-71
2023/05/15 12:12:13;;;;;;;6.70;4.70;;;19.40;99.90;;;;;;5073511;28;20939;-69
2023/05/15 12:14:40;;;;;;;4.20;3.90;;;19.50;99.90;;;;;;5075429;28;20933;-72
2023/05/15 12:17:05;;;;;;;8.97;6.50;;;19.60;99.90;;;;;;5077429;28;20915;-67
2023/05/15 12:19:33;;;;;;;5.10;4.27;;;19.70;99.90;;;;;;5072994;28;20429;-67
2023/05/15 12:21:59;;;;;;;5.50;4.97;;;19.50;99.90;;;;;;5072567;28;20428;-67
2023/05/15 12:24:27;;;;;;;10.37;4.70;;;19.40;99.90;;;;;;5093627;28;20456;-71
2023/05/15 12:26:53;;;;;;;7.47;4.67;;;19.40;99.90;;;;;;5093889;28;20577;-70
2023/05/15 12:29:19;;;;;;;6.17;4.37;;;19.40;99.90;;;;;;5073627;28;20428;-69
2023/05/15 12:31:46;;;;;;;4.93;4.53;;;19.40;99.90;;;;;;5075359;28;20174;-69
2023/05/15 12:34:12;;;;;;;4.63;4.30;;;19.40;99.90;;;;;;5073664;28;20440;-71
2023/05/15 12:36:41;;;;;;;5.30;4.90;;;19.50;99.90;;;;;;5073659;28;20424;-68
2023/05/15 12:39:07;;;;;;;8.70;4.50;;;19.60;99.90;;;;;;5073462;28;20415;-68
2023/05/15 12:41:35;;;;;;;5.50;4.97;;;19.80;99.90;;;;;;5071791;28;20523;-70